Time;durP1;ratioP1;P1;durP2;ratioP2;P2;SDS_P1;SDS_P2;PMS_P1;PMS_P2;Temp;Humidity;BMP_temperature;BMP_pressure;BME280_temperature;BME280_humidity;BME280_pressure;Samples;Min_cycle;Max_cycle;Signal;HPM_P1;HPM_P2
2022/12/10 00:00:20;;;;;;;63.60;33.25;;;;;;;;;;5061098;28;20052;-74
2022/12/10 00:02:46;;;;;;;63.03;32.85;;;;;;;;;;5055930;28;20299;-74
2022/12/10 00:05:12;;;;;;;63.97;33.35;;;;;;;;;;5056193;28;20467;-74
2022/12/10 00:07:38;;;;;;;64.82;33.45;;;;;;;;;;5056089;28;20048;-74
2022/12/10 00:10:04;;;;;;;71.60;34.30;;;;;;;;;;5060156;28;20119;-74
2022/12/10 00:12:33;;;;;;;64.10;33.08;;;;;;;;;;5050334;28;20135;-75
2022/12/10 00:14:59;;;;;;;65.38;34.33;;;;;;;;;;5057817;28;20067;-75
2022/12/10 00:17:25;;;;;;;67.03;34.15;;;;;;;;;;5053188;28;21218;-75
2022/12/10 00:19:51;;;;;;;61.00;33.22;;;;;;;;;;5057731;28;20384;-75
2022/12/10 00:22:17;;;;;;;63.30;32.90;;;;;;;;;;5058642;28;20060;-75
2022/12/10 00:24:43;;;;;;;66.22;33.75;;;;;;;;;;5057380;28;20045;-75
2022/12/10 00:27:09;;;;;;;70.10;33.70;;;;;;;;;;5054797;28;20156;-75
2022/12/10 00:29:35;;;;;;;60.78;32.80;;;;;;;;;;5068740;28;20048;-75
2022/12/10 00:32:01;;;;;;;67.05;32.95;;;;;;;;;;5060157;28;20106;-75
2022/12/10 00:34:27;;;;;;;64.50;33.10;;;;;;;;;;5064744;28;20136;-75
2022/12/10 00:36:53;;;;;;;63.80;32.40;;;;;;;;;;5060287;28;20076;-75
2022/12/10 00:39:20;;;;;;;60.72;32.10;;;;;;;;;;5058993;28;20134;-75
2022/12/10 00:41:46;;;;;;;58.17;32.88;;;;;;;;;;5066285;28;20044;-75
2022/12/10 00:44:12;;;;;;;64.50;32.35;;;;;;;;;;5063475;28;20044;-75
2022/12/10 00:46:38;;;;;;;61.80;33.13;;;;;;;;;;5062162;28;20045;-75
2022/12/10 00:49:04;;;;;;;62.75;32.03;;;;;;;;;;5059934;28;20086;-75
2022/12/10 00:51:30;;;;;;;60.15;32.53;;;;;;;;;;5069366;28;20408;-75
2022/12/10 00:53:59;;;;;;;69.60;34.10;;;;;;;;;;5060296;28;20067;-75
2022/12/10 00:56:32;;;;;;;60.67;32.38;;;;;;;;;;5067227;28;20063;-75
2022/12/10 00:58:59;;;;;;;57.33;31.98;;;;;;;;;;5067758;28;20113;-75
2022/12/10 01:01:31;;;;;;;59.13;32.40;;;;;;;;;;5063945;28;20446;-74
2022/12/10 01:04:01;;;;;;;61.88;32.53;;;;;;;;;;5054052;28;20069;-75
2022/12/10 01:06:29;;;;;;;62.38;32.33;;;;;;;;;;5055515;28;20049;-75
2022/12/10 01:08:58;;;;;;;60.58;31.58;;;;;;;;;;5054908;28;20052;-75
2022/12/10 01:11:25;;;;;;;65.13;33.45;;;;;;;;;;5055199;28;20042;-75
2022/12/10 01:13:52;;;;;;;60.50;32.50;;;;;;;;;;5059331;28;20036;-75
2022/12/10 01:16:19;;;;;;;64.20;31.90;;;;;;;;;;5063885;28;20056;-75
2022/12/10 01:18:45;;;;;;;66.10;33.95;;;;;;;;;;5061101;28;20488;-75
2022/12/10 01:21:13;;;;;;;54.55;31.08;;;;;;;;;;5063459;28;20077;-75
2022/12/10 01:23:39;;;;;;;60.88;32.10;;;;;;;;;;5065490;28;20098;-75
2022/12/10 01:26:07;;;;;;;59.67;31.52;;;;;;;;;;5063156;28;20132;-75
2022/12/10 01:28:34;;;;;;;60.70;31.65;;;;;;;;;;5062076;28;20432;-75
2022/12/10 01:31:04;;;;;;;62.67;31.25;;;;;;;;;;5062878;28;20036;-75
2022/12/10 01:33:30;;;;;;;61.25;32.60;;;;;;;;;;5062003;28;20061;-75
2022/12/10 01:35:57;;;;;;;55.50;30.75;;;;;;;;;;5058085;28;20083;-75
2022/12/10 01:38:23;;;;;;;58.28;30.60;;;;;;;;;;5066530;28;20044;-75
2022/12/10 01:40:49;;;;;;;57.92;31.60;;;;;;;;;;5064417;28;20135;-75
2022/12/10 01:43:15;;;;;;;53.33;31.58;;;;;;;;;;5057586;28;20044;-75
2022/12/10 01:45:41;;;;;;;67.40;32.58;;;;;;;;;;5063310;28;20051;-74
2022/12/10 01:48:08;;;;;;;63.90;32.25;;;;;;;;;;5067299;28;20044;-75
2022/12/10 01:50:34;;;;;;;66.78;32.92;;;;;;;;;;5071208;28;20439;-75
2022/12/10 01:53:00;;;;;;;60.95;32.22;;;;;;;;;;5051812;28;20049;-74
2022/12/10 01:55:38;;;;;;;62.83;33.47;;;;;;;;;;5059159;28;20403;-74
2022/12/10 01:58:04;;;;;;;58.92;31.85;;;;;;;;;;5063726;28;20404;-74
2022/12/10 02:00:32;;;;;;;64.10;32.20;;;;;;;;;;5067310;28;20052;-74
2022/12/10 02:03:08;;;;;;;61.85;31.92;;;;;;;;;;5059665;28;20033;-75
2022/12/10 02:05:40;;;;;;;62.13;32.20;;;;;;;;;;5071427;28;20041;-75
2022/12/10 02:08:19;;;;;;;71.47;34.25;;;;;;;;;;5059909;28;20063;-75
2022/12/10 02:10:56;;;;;;;96.35;30.15;;;;;;;;;;5058284;28;20036;-75
2022/12/10 02:13:25;;;;;;;98.63;30.48;;;;;;;;;;5059970;28;20093;-75
2022/12/10 02:16:06;;;;;;;75.10;28.20;;;;;;;;;;5071707;28;20060;-74
2022/12/10 02:18:36;;;;;;;102.78;28.88;;;;;;;;;;5066991;28;20040;-75
2022/12/10 02:21:07;;;;;;;102.97;29.73;;;;;;;;;;5069947;28;20444;-75
2022/12/10 02:23:36;;;;;;;86.63;27.65;;;;;;;;;;5065580;28;20119;-75
2022/12/10 02:26:02;;;;;;;98.55;27.00;;;;;;;;;;5069893;28;20381;-75
2022/12/10 02:28:39;;;;;;;90.32;26.33;;;;;;;;;;5064296;28;20123;-77
2022/12/10 02:31:06;;;;;;;80.53;26.33;;;;;;;;;;5064717;28;20055;-74
2022/12/10 02:33:33;;;;;;;68.75;26.50;;;;;;;;;;5067335;28;20051;-74
2022/12/10 02:35:59;;;;;;;78.85;25.45;;;;;;;;;;5060770;28;20115;-74
2022/12/10 02:38:31;;;;;;;104.63;27.13;;;;;;;;;;5060891;28;20127;-75
2022/12/10 02:41:03;;;;;;;61.47;24.58;;;;;;;;;;5066800;28;20508;-75
2022/12/10 02:43:29;;;;;;;80.68;25.00;;;;;;;;;;5070186;28;20036;-74
2022/12/10 02:45:57;;;;;;;61.50;24.70;;;;;;;;;;5068814;28;20159;-75
2022/12/10 02:48:23;;;;;;;75.72;23.25;;;;;;;;;;5068959;28;20044;-75
2022/12/10 02:50:49;;;;;;;134.00;28.75;;;;;;;;;;5071053;28;20115;-75
2022/12/10 02:53:18;;;;;;;61.25;23.13;;;;;;;;;;5070168;28;20595;-75
2022/12/10 02:55:57;;;;;;;92.40;25.13;;;;;;;;;;5071356;28;20047;-74
2022/12/10 02:58:23;;;;;;;141.82;27.83;;;;;;;;;;5059419;28;20053;-75
2022/12/10 03:01:02;;;;;;;77.15;25.67;;;;;;;;;;5070546;28;20041;-75
2022/12/10 03:03:38;;;;;;;81.07;23.60;;;;;;;;;;5069031;28;20075;-75
2022/12/10 03:06:24;;;;;;;110.25;26.88;;;;;;;;;;5067913;28;20045;-75
2022/12/10 03:08:58;;;;;;;76.57;25.35;;;;;;;;;;5056874;28;20048;-75
2022/12/10 03:11:24;;;;;;;100.35;27.38;;;;;;;;;;5060301;28;20079;-75
2022/12/10 03:13:54;;;;;;;125.40;28.02;;;;;;;;;;5059488;28;20040;-75
2022/12/10 03:16:22;;;;;;;74.38;26.05;;;;;;;;;;5065102;28;20037;-75
2022/12/10 03:18:50;;;;;;;102.88;25.08;;;;;;;;;;5070120;28;20087;-75
2022/12/10 03:21:16;;;;;;;62.50;23.02;;;;;;;;;;5067258;28;20779;-75
2022/12/10 03:23:44;;;;;;;161.13;28.10;;;;;;;;;;5066872;28;20040;-75
2022/12/10 03:26:10;;;;;;;64.18;23.58;;;;;;;;;;5069252;28;20059;-75
2022/12/10 03:28:38;;;;;;;68.65;23.23;;;;;;;;;;5061933;28;20041;-75
2022/12/10 03:31:04;;;;;;;83.05;24.42;;;;;;;;;;5059901;28;20072;-75
2022/12/10 03:33:31;;;;;;;88.43;23.67;;;;;;;;;;5060222;28;20084;-75
2022/12/10 03:35:57;;;;;;;86.00;23.17;;;;;;;;;;5066644;28;20049;-74
2022/12/10 03:38:23;;;;;;;66.20;20.60;;;;;;;;;;5061600;28;20093;-75
2022/12/10 03:40:52;;;;;;;58.83;20.58;;;;;;;;;;5060259;28;20511;-75
2022/12/10 03:43:18;;;;;;;73.78;21.73;;;;;;;;;;5071466;28;20051;-75
2022/12/10 03:45:44;;;;;;;57.22;20.63;;;;;;;;;;5070971;28;20044;-75
2022/12/10 03:48:12;;;;;;;57.22;20.33;;;;;;;;;;5061853;28;20127;-75
2022/12/10 03:50:38;;;;;;;62.35;20.55;;;;;;;;;;5062340;28;20082;-75
2022/12/10 03:53:04;;;;;;;80.10;20.20;;;;;;;;;;5060084;28;20076;-74
2022/12/10 03:55:32;;;;;;;98.18;22.77;;;;;;;;;;5071246;28;20064;-74
2022/12/10 03:57:58;;;;;;;87.15;21.25;;;;;;;;;;5066101;28;20479;-75
2022/12/10 04:00:24;;;;;;;97.75;20.17;;;;;;;;;;5066998;28;20045;-75
2022/12/10 04:02:50;;;;;;;74.13;19.17;;;;;;;;;;5070536;28;20102;-75
2022/12/10 04:05:16;;;;;;;137.10;24.35;;;;;;;;;;5068402;28;20598;-75
2022/12/10 04:07:42;;;;;;;101.10;20.40;;;;;;;;;;5059564;28;21401;-74
2022/12/10 04:10:09;;;;;;;110.07;20.73;;;;;;;;;;5057741;28;20066;-75
2022/12/10 04:12:35;;;;;;;156.65;21.80;;;;;;;;;;5064575;28;20037;-75
2022/12/10 04:17:45;;;;;;;131.20;21.50;;;;;;;;;;5061350;28;20496;-75
2022/12/10 04:28:26;;;;;;;90.13;18.30;;;;;;;;;;5062093;28;20076;-74
2022/12/10 04:30:52;;;;;;;76.18;17.48;;;;;;;;;;5063310;28;20063;-75
2022/12/10 04:33:18;;;;;;;78.97;17.90;;;;;;;;;;5066613;28;20111;-74
2022/12/10 04:35:44;;;;;;;87.97;19.00;;;;;;;;;;5067877;28;20127;-74
2022/12/10 04:38:13;;;;;;;102.03;19.25;;;;;;;;;;5064881;28;20037;-75
2022/12/10 04:40:39;;;;;;;203.32;24.63;;;;;;;;;;5054478;28;20049;-74
2022/12/10 04:43:05;;;;;;;81.43;18.02;;;;;;;;;;5059789;28;20434;-74
2022/12/10 04:45:33;;;;;;;165.75;21.65;;;;;;;;;;5054257;28;20045;-75
2022/12/10 04:47:59;;;;;;;138.00;21.08;;;;;;;;;;5059231;28;20040;-74
2022/12/10 04:50:25;;;;;;;79.35;18.00;;;;;;;;;;5059551;28;20048;-75
2022/12/10 04:52:51;;;;;;;103.82;19.95;;;;;;;;;;5059690;28;20523;-74
2022/12/10 04:55:18;;;;;;;103.45;19.08;;;;;;;;;;5059515;28;20441;-74
2022/12/10 04:57:44;;;;;;;92.95;18.33;;;;;;;;;;5057327;28;20053;-74
2022/12/10 05:00:10;;;;;;;74.70;18.98;;;;;;;;;;5064733;28;20446;-74
2022/12/10 05:02:36;;;;;;;115.82;20.35;;;;;;;;;;5065347;28;20043;-74
2022/12/10 05:05:02;;;;;;;88.78;20.40;;;;;;;;;;5068848;28;20048;-74
2022/12/10 05:07:28;;;;;;;104.10;20.20;;;;;;;;;;5059488;28;20502;-74
2022/12/10 05:09:54;;;;;;;109.25;19.98;;;;;;;;;;5049551;28;20045;-74
2022/12/10 05:12:20;;;;;;;82.63;18.55;;;;;;;;;;5054202;28;20113;-74
2022/12/10 05:14:46;;;;;;;117.82;17.90;;;;;;;;;;5057504;28;20105;-75
2022/12/10 05:17:21;;;;;;;71.78;16.33;;;;;;;;;;5066374;28;20044;-74
2022/12/10 05:19:47;;;;;;;66.50;16.70;;;;;;;;;;5058437;28;20044;-74
2022/12/10 05:25:07;;;;;;;79.28;17.90;;;;;;;;;;5065599;28;20048;-74
2022/12/10 05:27:33;;;;;;;131.98;17.58;;;;;;;;;;5065499;28;20044;-75
2022/12/10 05:29:59;;;;;;;71.20;16.08;;;;;;;;;;5059878;28;20123;-74
2022/12/10 05:32:25;;;;;;;126.88;17.75;;;;;;;;;;5061704;28;20078;-75
2022/12/10 05:34:51;;;;;;;72.93;16.83;;;;;;;;;;5067725;28;20087;-74
2022/12/10 05:37:17;;;;;;;87.47;15.98;;;;;;;;;;5060471;28;20117;-74
2022/12/10 05:39:43;;;;;;;107.05;18.60;;;;;;;;;;5062590;28;20544;-74
2022/12/10 05:42:09;;;;;;;85.15;16.83;;;;;;;;;;5055168;28;20052;-74
2022/12/10 05:44:35;;;;;;;60.35;16.75;;;;;;;;;;5066452;28;20048;-74
2022/12/10 05:47:01;;;;;;;77.38;16.60;;;;;;;;;;5065424;28;20056;-74
2022/12/10 05:49:27;;;;;;;61.45;15.98;;;;;;;;;;5067605;28;20048;-74
2022/12/10 05:51:56;;;;;;;91.53;17.50;;;;;;;;;;5069128;28;20381;-74
2022/12/10 05:54:22;;;;;;;87.63;18.10;;;;;;;;;;5074344;28;20446;-74
2022/12/10 05:56:48;;;;;;;58.20;16.30;;;;;;;;;;5068640;28;20067;-74
2022/12/10 05:59:14;;;;;;;74.78;16.02;;;;;;;;;;5058368;28;20076;-74
2022/12/10 06:01:40;;;;;;;87.07;17.40;;;;;;;;;;5067873;28;20052;-74
2022/12/10 06:04:06;;;;;;;90.63;17.35;;;;;;;;;;5064173;28;20084;-74
2022/12/10 06:06:33;;;;;;;81.68;17.38;;;;;;;;;;5063743;28;20064;-74
2022/12/10 06:08:59;;;;;;;87.38;18.08;;;;;;;;;;5058130;28;20041;-74
2022/12/10 06:11:27;;;;;;;73.80;17.92;;;;;;;;;;5054505;28;20044;-74
2022/12/10 06:13:54;;;;;;;86.35;18.50;;;;;;;;;;5056352;28;20102;-74
2022/12/10 06:16:20;;;;;;;97.00;18.90;;;;;;;;;;5059583;28;20672;-74
2022/12/10 06:18:46;;;;;;;74.55;21.13;;;;;;;;;;5061765;28;20134;-74
2022/12/10 06:21:17;;;;;;;72.03;19.13;;;;;;;;;;5061572;28;20041;-74
2022/12/10 06:23:46;;;;;;;85.25;18.75;;;;;;;;;;5056280;28;20052;-74
2022/12/10 06:26:14;;;;;;;88.57;19.40;;;;;;;;;;5060242;28;20819;-74
2022/12/10 06:28:45;;;;;;;67.13;17.60;;;;;;;;;;5059297;28;20514;-74
2022/12/10 06:31:11;;;;;;;122.28;20.63;;;;;;;;;;5059055;28;20138;-74
2022/12/10 06:33:37;;;;;;;69.07;17.45;;;;;;;;;;5059084;28;20704;-74
2022/12/10 06:36:04;;;;;;;106.82;19.85;;;;;;;;;;5063122;28;20407;-74
2022/12/10 06:38:34;;;;;;;86.65;19.05;;;;;;;;;;5069070;28;20558;-74
2022/12/10 06:41:00;;;;;;;61.75;19.17;;;;;;;;;;5068660;28;20047;-75
2022/12/10 06:43:28;;;;;;;92.10;19.33;;;;;;;;;;5065071;28;20159;-75
2022/12/10 06:45:54;;;;;;;86.72;18.63;;;;;;;;;;5066522;28;20071;-75
2022/12/10 06:48:20;;;;;;;60.30;18.80;;;;;;;;;;5066430;28;20090;-74
2022/12/10 06:50:46;;;;;;;61.97;18.55;;;;;;;;;;5059984;28;20378;-75
2022/12/10 06:53:12;;;;;;;72.15;19.70;;;;;;;;;;5066778;28;20424;-74
2022/12/10 06:55:39;;;;;;;82.38;19.58;;;;;;;;;;5068657;28;20554;-74
2022/12/10 06:58:05;;;;;;;79.85;20.15;;;;;;;;;;5068465;28;20056;-74
2022/12/10 07:00:31;;;;;;;72.15;19.20;;;;;;;;;;5064902;28;20041;-74
2022/12/10 07:02:57;;;;;;;94.15;20.48;;;;;;;;;;5065732;28;20055;-75
2022/12/10 07:05:23;;;;;;;52.63;17.25;;;;;;;;;;5066657;28;20052;-74
2022/12/10 07:07:49;;;;;;;109.57;22.30;;;;;;;;;;5066175;28;20036;-74
2022/12/10 07:10:15;;;;;;;69.53;21.10;;;;;;;;;;5057530;28;20045;-74
2022/12/10 07:12:41;;;;;;;99.55;21.90;;;;;;;;;;5070069;28;20044;-74
2022/12/10 07:15:08;;;;;;;107.88;23.40;;;;;;;;;;5068973;28;20051;-75
2022/12/10 07:17:34;;;;;;;79.32;23.92;;;;;;;;;;5061464;28;20477;-74
2022/12/10 07:20:00;;;;;;;78.70;20.90;;;;;;;;;;5063871;28;20484;-74
2022/12/10 07:22:26;;;;;;;68.05;19.45;;;;;;;;;;5063206;28;20037;-74
2022/12/10 07:24:52;;;;;;;80.53;18.75;;;;;;;;;;5056262;28;20055;-74
2022/12/10 07:27:18;;;;;;;97.47;20.73;;;;;;;;;;5062217;28;20385;-75
2022/12/10 07:29:44;;;;;;;97.57;21.25;;;;;;;;;;5056828;28;20095;-74
2022/12/10 07:32:10;;;;;;;180.63;27.17;;;;;;;;;;5069153;28;20094;-74
2022/12/10 07:34:36;;;;;;;126.00;23.17;;;;;;;;;;5064547;28;20052;-74
2022/12/10 07:37:02;;;;;;;122.05;23.13;;;;;;;;;;5066508;28;20461;-74
2022/12/10 07:39:28;;;;;;;89.75;23.15;;;;;;;;;;5063308;28;20067;-74
2022/12/10 07:41:54;;;;;;;64.25;26.15;;;;;;;;;;5061590;28;20396;-74
2022/12/10 07:44:22;;;;;;;96.70;24.45;;;;;;;;;;5069324;28;20052;-74
2022/12/10 07:46:49;;;;;;;66.53;22.58;;;;;;;;;;5058184;28;20067;-74
2022/12/10 07:49:16;;;;;;;87.60;25.42;;;;;;;;;;5066399;28;20101;-75
2022/12/10 07:51:45;;;;;;;74.45;21.35;;;;;;;;;;5065086;28;20055;-74
2022/12/10 07:54:12;;;;;;;91.05;20.90;;;;;;;;;;5059459;28;20415;-74
2022/12/10 07:56:41;;;;;;;93.63;21.50;;;;;;;;;;5064580;28;20108;-75
2022/12/10 07:59:07;;;;;;;79.07;21.48;;;;;;;;;;5065392;28;20507;-75
2022/12/10 08:01:33;;;;;;;94.43;21.90;;;;;;;;;;5063288;28;20094;-74
2022/12/10 08:03:59;;;;;;;86.90;23.88;;;;;;;;;;5068155;28;20040;-75
2022/12/10 08:06:26;;;;;;;94.38;26.60;;;;;;;;;;5064276;28;20052;-75
2022/12/10 08:08:53;;;;;;;68.85;19.98;;;;;;;;;;5057633;28;20610;-75
2022/12/10 08:11:20;;;;;;;49.30;21.40;;;;;;;;;;5058400;28;20037;-75
2022/12/10 08:13:46;;;;;;;56.33;20.55;;;;;;;;;;5058125;28;20056;-75
2022/12/10 08:16:16;;;;;;;59.13;21.20;;;;;;;;;;5066045;28;20165;-74
2022/12/10 08:18:43;;;;;;;70.65;20.83;;;;;;;;;;5065468;28;20040;-75
2022/12/10 08:21:13;;;;;;;66.70;19.70;;;;;;;;;;5063373;28;20048;-75
2022/12/10 08:23:39;;;;;;;97.45;25.30;;;;;;;;;;5064069;28;20041;-75
2022/12/10 08:26:06;;;;;;;81.53;23.45;;;;;;;;;;5065421;28;20048;-75
2022/12/10 08:28:32;;;;;;;54.63;21.85;;;;;;;;;;5066998;28;20064;-75
2022/12/10 08:30:58;;;;;;;70.03;22.30;;;;;;;;;;5065324;28;20040;-75
2022/12/10 08:33:25;;;;;;;75.53;23.52;;;;;;;;;;5056674;28;20386;-75
2022/12/10 08:35:51;;;;;;;48.08;21.55;;;;;;;;;;5065755;28;20211;-75
2022/12/10 08:38:17;;;;;;;81.63;26.80;;;;;;;;;;5065848;28;20472;-75
2022/12/10 08:40:43;;;;;;;64.57;23.38;;;;;;;;;;5065750;28;20141;-75
2022/12/10 08:43:09;;;;;;;74.05;23.10;;;;;;;;;;5063015;28;20488;-75
2022/12/10 08:45:35;;;;;;;59.05;23.00;;;;;;;;;;5067887;28;20044;-75
2022/12/10 08:48:02;;;;;;;70.65;25.83;;;;;;;;;;5058428;28;20164;-75
2022/12/10 08:50:28;;;;;;;73.05;23.15;;;;;;;;;;5064623;28;20132;-75
2022/12/10 08:52:54;;;;;;;79.38;23.98;;;;;;;;;;5060877;28;20515;-75
2022/12/10 08:55:20;;;;;;;57.42;23.15;;;;;;;;;;5065311;28;20040;-75
2022/12/10 08:57:46;;;;;;;72.53;23.38;;;;;;;;;;5061664;28;20056;-75
2022/12/10 09:00:13;;;;;;;77.82;24.38;;;;;;;;;;5063986;28;20056;-75
2022/12/10 09:02:39;;;;;;;56.53;21.58;;;;;;;;;;5060306;28;20484;-75
2022/12/10 09:05:06;;;;;;;61.35;22.30;;;;;;;;;;5058578;28;20094;-75
2022/12/10 09:07:32;;;;;;;66.95;22.65;;;;;;;;;;5057136;28;20043;-75
2022/12/10 09:09:58;;;;;;;67.82;23.88;;;;;;;;;;5066266;28;20078;-75
2022/12/10 09:12:24;;;;;;;87.55;25.33;;;;;;;;;;5065309;28;20051;-77
2022/12/10 09:14:50;;;;;;;58.63;22.70;;;;;;;;;;5051505;28;20452;-76
2022/12/10 09:17:16;;;;;;;52.10;22.65;;;;;;;;;;5063616;28;20052;-77
2022/12/10 09:19:42;;;;;;;49.88;23.00;;;;;;;;;;5064068;28;20114;-77
2022/12/10 09:22:08;;;;;;;54.50;23.33;;;;;;;;;;5065086;28;20495;-77
2022/12/10 09:24:34;;;;;;;49.05;20.63;;;;;;;;;;5066435;28;20040;-76
2022/12/10 09:27:01;;;;;;;58.92;22.55;;;;;;;;;;5061511;28;20056;-76
2022/12/10 09:29:27;;;;;;;67.68;22.42;;;;;;;;;;5067498;28;20127;-76
2022/12/10 09:31:53;;;;;;;49.30;23.13;;;;;;;;;;5054719;28;20118;-76
2022/12/10 09:34:19;;;;;;;56.75;23.17;;;;;;;;;;5068023;28;20060;-77
2022/12/10 09:36:45;;;;;;;64.35;24.00;;;;;;;;;;5055165;28;20044;-76
2022/12/10 09:39:11;;;;;;;56.55;26.23;;;;;;;;;;5058671;28;20853;-76
2022/12/10 09:41:56;;;;;;;48.92;24.27;;;;;;;;;;5060271;28;20044;-76
2022/12/10 09:44:28;;;;;;;52.58;25.27;;;;;;;;;;5054842;28;20079;-76
2022/12/10 09:46:56;;;;;;;49.92;22.83;;;;;;;;;;5056994;28;20182;-76
2022/12/10 09:49:28;;;;;;;63.45;23.98;;;;;;;;;;5057707;28;20511;-76
2022/12/10 09:51:56;;;;;;;56.42;28.50;;;;;;;;;;5053689;28;20434;-75
2022/12/10 09:54:22;;;;;;;52.85;23.95;;;;;;;;;;5061479;28;20492;-74
2022/12/10 09:56:48;;;;;;;45.83;22.65;;;;;;;;;;5064465;28;20101;-74
2022/12/10 09:59:20;;;;;;;47.75;22.75;;;;;;;;;;5057032;28;20048;-74
2022/12/10 10:01:48;;;;;;;45.22;19.65;;;;;;;;;;5054755;28;20045;-74
2022/12/10 10:04:14;;;;;;;44.25;20.95;;;;;;;;;;5064925;28;20044;-75
2022/12/10 10:06:40;;;;;;;43.38;21.10;;;;;;;;;;5070409;28;20045;-75
2022/12/10 10:09:06;;;;;;;59.60;24.92;;;;;;;;;;5065641;28;20040;-74
2022/12/10 10:11:34;;;;;;;48.85;22.52;;;;;;;;;;5062451;28;20037;-76
2022/12/10 10:14:02;;;;;;;48.38;21.40;;;;;;;;;;5064941;28;20036;-75
2022/12/10 10:16:31;;;;;;;47.22;23.05;;;;;;;;;;5057780;28;20543;-75
2022/12/10 10:18:57;;;;;;;47.40;25.15;;;;;;;;;;5079786;28;20088;-75
2022/12/10 10:21:28;;;;;;;44.53;22.35;;;;;;;;;;5075283;28;20045;-77
2022/12/10 10:23:55;;;;;;;47.17;22.77;;;;;;;;;;5056802;28;20048;-76
2022/12/10 10:26:21;;;;;;;48.55;24.58;;;;;;;;;;5057090;28;20091;-76
2022/12/10 10:28:57;;;;;;;43.47;21.83;;;;;;;;;;5060222;28;20043;-77
2022/12/10 10:31:25;;;;;;;48.10;23.90;;;;;;;;;;5060670;28;20476;-77
2022/12/10 10:33:56;;;;;;;44.03;23.67;;;;;;;;;;5063675;28;20063;-76
2022/12/10 10:36:27;;;;;;;45.28;23.63;;;;;;;;;;5063498;28;20131;-76
2022/12/10 10:38:53;;;;;;;46.60;24.00;;;;;;;;;;5059182;28;20044;-77
2022/12/10 10:41:19;;;;;;;51.03;25.92;;;;;;;;;;5055733;28;20709;-76
2022/12/10 10:43:47;;;;;;;45.00;23.33;;;;;;;;;;5057492;28;20048;-75
2022/12/10 10:46:23;;;;;;;44.30;21.83;;;;;;;;;;5061665;28;20048;-75
2022/12/10 10:48:49;;;;;;;41.45;21.52;;;;;;;;;;5067172;28;20116;-75
2022/12/10 10:51:15;;;;;;;43.78;22.83;;;;;;;;;;5066979;28;20041;-75
2022/12/10 10:53:46;;;;;;;51.17;23.15;;;;;;;;;;5067429;28;20126;-75
2022/12/10 10:56:21;;;;;;;43.03;22.77;;;;;;;;;;5063065;28;20052;-75
2022/12/10 10:58:47;;;;;;;42.15;22.27;;;;;;;;;;5072960;28;20049;-75
2022/12/10 11:01:13;;;;;;;43.45;22.05;;;;;;;;;;5063157;28;20045;-75
2022/12/10 11:03:46;;;;;;;46.83;23.30;;;;;;;;;;5053709;28;20049;-75
2022/12/10 11:06:13;;;;;;;43.43;22.17;;;;;;;;;;5064836;28;20548;-75
2022/12/10 11:08:39;;;;;;;41.83;22.50;;;;;;;;;;5072435;28;20303;-75
2022/12/10 11:11:13;;;;;;;42.35;21.85;;;;;;;;;;5069029;28;20052;-75
2022/12/10 11:13:39;;;;;;;;;;;;;;;;;;5067984;28;20153;-75
2022/12/10 11:16:18;;;;;;;46.58;22.52;;;;;;;;;;5070101;28;20382;-75
2022/12/10 11:18:53;;;;;;;50.42;26.30;;;;;;;;;;5069318;28;20059;-75
2022/12/10 11:21:21;;;;;;;78.68;46.05;;;;;;;;;;5071054;28;20036;-75
2022/12/10 11:23:50;;;;;;;44.30;22.85;;;;;;;;;;5061352;28;20044;-75
2022/12/10 11:26:22;;;;;;;44.53;26.15;;;;;;;;;;5062687;28;20048;-75
2022/12/10 11:29:01;;;;;;;44.20;23.50;;;;;;;;;;5063157;28;20048;-75
2022/12/10 11:31:46;;;;;;;42.95;24.10;;;;;;;;;;5064559;28;20044;-75
2022/12/10 11:34:15;;;;;;;50.25;26.73;;;;;;;;;;5069748;28;20060;-74
2022/12/10 11:36:44;;;;;;;49.25;26.63;;;;;;;;;;5069004;28;20044;-74
2022/12/10 11:39:13;;;;;;;42.85;24.50;;;;;;;;;;5061414;28;20048;-75
2022/12/10 11:41:59;;;;;;;40.63;22.60;;;;;;;;;;5067173;28;20063;-75
2022/12/10 11:44:44;;;;;;;41.35;22.98;;;;;;;;;;5067374;28;20055;-75
2022/12/10 11:47:22;;;;;;;39.92;21.75;;;;;;;;;;5063411;28;20062;-75
2022/12/10 11:50:02;;;;;;;41.40;23.52;;;;;;;;;;5061182;28;20072;-75
2022/12/10 11:52:50;;;;;;;38.38;22.58;;;;;;;;;;5067667;28;20126;-75
2022/12/10 11:55:22;;;;;;;38.72;22.23;;;;;;;;;;5070773;28;20051;-75
2022/12/10 11:57:49;;;;;;;44.08;20.95;;;;;;;;;;5060324;28;20484;-75
2022/12/10 12:00:18;;;;;;;37.00;20.48;;;;;;;;;;5061382;28;20060;-75
2022/12/10 12:03:03;;;;;;;33.30;19.05;;;;;;;;;;5066865;28;20037;-75
2022/12/10 12:05:29;;;;;;;36.15;20.33;;;;;;;;;;5068857;28;20044;-75
2022/12/10 12:08:15;;;;;;;37.88;20.75;;;;;;;;;;5067233;28;20056;-75
2022/12/10 12:11:00;;;;;;;38.92;20.55;;;;;;;;;;5059464;28;20049;-75
2022/12/10 12:13:29;;;;;;;40.17;21.23;;;;;;;;;;5065285;28;20056;-75
2022/12/10 12:15:58;;;;;;;34.85;19.73;;;;;;;;;;5065961;28;20130;-75
2022/12/10 12:18:43;;;;;;;36.33;19.75;;;;;;;;;;5064958;28;20045;-75
2022/12/10 12:21:11;;;;;;;40.25;21.08;;;;;;;;;;5064206;28;20080;-75
2022/12/10 12:23:46;;;;;;;35.25;20.08;;;;;;;;;;5070934;28;20052;-75
2022/12/10 12:26:20;;;;;;;35.25;19.10;;;;;;;;;;5068009;28;20131;-75
2022/12/10 12:28:46;;;;;;;;;;;;;;;;;;5058386;28;20051;-75
2022/12/10 12:31:14;;;;;;;35.33;20.23;;;;;;;;;;5068055;28;20354;-75
2022/12/10 12:33:43;;;;;;;40.55;20.58;;;;;;;;;;5065920;28;20056;-75
2022/12/10 12:36:09;;;;;;;36.53;20.88;;;;;;;;;;5066352;28;22329;-75
2022/12/10 12:38:43;;;;;;;36.03;21.02;;;;;;;;;;5071466;28;20395;-75
2022/12/10 12:41:16;;;;;;;36.13;20.88;;;;;;;;;;5069320;28;20107;-75
2022/12/10 12:43:55;;;;;;;40.42;21.80;;;;;;;;;;5059995;28;20111;-75
2022/12/10 12:46:27;;;;;;;36.50;18.85;;;;;;;;;;5063577;28;20087;-75
2022/12/10 12:49:00;;;;;;;28.15;16.88;;;;;;;;;;5060249;28;20053;-75
2022/12/10 12:51:26;;;;;;;31.90;17.92;;;;;;;;;;5066435;28;20044;-75
2022/12/10 12:53:53;;;;;;;35.75;18.50;;;;;;;;;;5070811;28;20131;-75
2022/12/10 12:56:38;;;;;;;31.45;17.92;;;;;;;;;;5067398;28;20128;-75
2022/12/10 12:59:23;;;;;;;43.08;22.40;;;;;;;;;;5071918;28;20059;-76
2022/12/10 13:01:54;;;;;;;33.42;18.83;;;;;;;;;;5064736;28;20071;-75
2022/12/10 13:04:20;;;;;;;32.65;17.70;;;;;;;;;;5067766;28;20137;-75
2022/12/10 13:07:05;;;;;;;34.45;18.30;;;;;;;;;;5066233;28;20051;-75
2022/12/10 13:09:31;;;;;;;32.95;18.80;;;;;;;;;;5066248;28;20041;-74
2022/12/10 13:12:03;;;;;;;29.25;17.25;;;;;;;;;;5067923;28;20045;-74
2022/12/10 13:14:34;;;;;;;35.42;19.20;;;;;;;;;;5070450;28;20095;-74
2022/12/10 13:17:08;;;;;;;34.15;17.95;;;;;;;;;;5066375;28;20052;-74
2022/12/10 13:19:35;;;;;;;38.13;19.20;;;;;;;;;;5069586;28;20044;-74
2022/12/10 13:22:03;;;;;;;34.20;16.88;;;;;;;;;;5060295;28;20048;-74
2022/12/10 13:24:35;;;;;;;34.10;19.08;;;;;;;;;;5066541;28;20045;-74
2022/12/10 13:27:07;;;;;;;34.70;19.52;;;;;;;;;;5066161;28;20097;-74
2022/12/10 13:29:48;;;;;;;36.05;18.63;;;;;;;;;;5067398;28;20557;-74
2022/12/10 13:32:21;;;;;;;37.58;19.98;;;;;;;;;;5059799;28;20048;-73
2022/12/10 13:35:07;;;;;;;35.60;20.90;;;;;;;;;;5070174;28;20096;-74
2022/12/10 13:37:33;;;;;;;36.25;20.42;;;;;;;;;;5066082;28;20032;-73
2022/12/10 13:40:13;;;;;;;33.15;17.15;;;;;;;;;;5066339;28;20080;-73
2022/12/10 13:45:33;;;;;;;31.77;16.98;;;;;;;;;;5057049;28;20052;-74
2022/12/10 13:48:18;;;;;;;36.72;19.95;;;;;;;;;;5067548;28;20055;-73
2022/12/10 13:50:56;;;;;;;38.53;19.92;;;;;;;;;;5067569;28;20041;-74
2022/12/10 13:53:35;;;;;;;32.33;17.20;;;;;;;;;;5060986;28;20060;-74
2022/12/10 13:56:22;;;;;;;31.67;16.02;;;;;;;;;;5062913;28;20492;-73
2022/12/10 13:59:02;;;;;;;29.65;16.45;;;;;;;;;;5071866;28;20052;-74
2022/12/10 14:01:47;;;;;;;30.15;16.25;;;;;;;;;;5065452;28;20044;-74
2022/12/10 14:04:31;;;;;;;28.08;15.75;;;;;;;;;;5059703;28;20128;-74
2022/12/10 14:06:58;;;;;;;33.15;18.08;;;;;;;;;;5066876;28;20102;-73
2022/12/10 14:09:25;;;;;;;34.40;17.25;;;;;;;;;;5074515;28;20044;-73
2022/12/10 14:11:57;;;;;;;29.48;18.25;;;;;;;;;;5069558;28;20439;-73
2022/12/10 14:14:30;;;;;;;35.08;21.52;;;;;;;;;;5063074;28;20041;-73
2022/12/10 14:16:56;;;;;;;32.47;18.90;;;;;;;;;;5067434;28;20136;-73
2022/12/10 14:19:26;;;;;;;32.92;19.00;;;;;;;;;;5074393;28;20480;-73
2022/12/10 14:21:52;;;;;;;37.50;22.08;;;;;;;;;;5064976;28;20075;-74
2022/12/10 14:24:33;;;;;;;30.30;17.73;;;;;;;;;;5071918;28;20055;-74
2022/12/10 14:27:01;;;;;;;29.20;17.38;;;;;;;;;;5062412;28;20392;-74
2022/12/10 14:29:27;;;;;;;29.67;16.98;;;;;;;;;;5057622;28;20097;-74
2022/12/10 14:31:53;;;;;;;28.65;16.42;;;;;;;;;;5063502;28;20139;-81
2022/12/10 14:34:23;;;;;;;30.02;16.60;;;;;;;;;;5064818;28;20051;-79
2022/12/10 14:36:51;;;;;;;29.17;17.48;;;;;;;;;;5068683;28;20124;-80
2022/12/10 14:39:18;;;;;;;28.75;16.42;;;;;;;;;;5066904;28;20511;-73
2022/12/10 14:41:45;;;;;;;26.35;15.90;;;;;;;;;;5065426;28;20052;-73